createdAt,value
2023-02-08T00:01:22.145Z,46.10
2023-02-08T00:03:49.937Z,50.13
2023-02-08T00:06:18.049Z,46.55
2023-02-08T00:08:45.757Z,39.97
2023-02-08T00:11:13.735Z,43.75
2023-02-08T00:13:42.437Z,39.55
2023-02-08T00:16:10.697Z,47.90
2023-02-08T00:18:39.285Z,36.65
2023-02-08T00:21:14.909Z,42.70
2023-02-08T00:23:41.998Z,39.85
2023-02-08T00:26:09.589Z,40.83
2023-02-08T00:28:37.079Z,48.70
2023-02-08T00:31:04.808Z,48.80
2023-02-08T00:33:32.222Z,53.30
2023-02-08T00:36:05.059Z,38.45
2023-02-08T00:38:32.405Z,47.22
2023-02-08T00:41:03.040Z,38.47
2023-02-08T00:43:30.196Z,41.60
2023-02-08T00:45:58.862Z,44.28
2023-02-08T00:48:27.537Z,43.05
2023-02-08T00:51:07.866Z,41.17
2023-02-08T00:53:39.888Z,46.45
2023-02-08T00:56:08.361Z,40.20
2023-02-08T00:58:36.219Z,33.35
2023-02-08T01:01:05.232Z,38.65
2023-02-08T01:03:37.764Z,38.83
2023-02-08T01:06:08.483Z,35.65
2023-02-08T01:08:36.311Z,35.15
2023-02-08T01:11:13.378Z,36.90
2023-02-08T01:13:40.976Z,35.63
2023-02-08T01:16:15.691Z,42.17
2023-02-08T01:18:44.882Z,35.08
2023-02-08T01:21:18.425Z,32.45
2023-02-08T01:23:46.571Z,35.05
2023-02-08T01:26:15.160Z,36.45
2023-02-08T01:28:42.638Z,29.95
2023-02-08T01:31:13.193Z,31.13
2023-02-08T01:33:40.467Z,35.42
2023-02-08T01:36:08.350Z,28.92
2023-02-08T01:38:36.931Z,31.40
2023-02-08T01:41:06.346Z,37.17
2023-02-08T01:43:55.384Z,30.50
2023-02-08T01:46:23.148Z,29.55
2023-02-08T01:48:52.061Z,31.35
2023-02-08T01:51:22.972Z,32.45
2023-02-08T01:53:52.264Z,29.65
2023-02-08T01:56:29.847Z,32.53
2023-02-08T01:59:02.888Z,32.90
2023-02-08T02:01:32.021Z,31.92
2023-02-08T02:04:04.133Z,33.95
2023-02-08T02:06:58.269Z,23.13
2023-02-08T02:09:29.087Z,22.80
2023-02-08T02:11:57.710Z,27.30
2023-02-08T02:14:28.231Z,27.73
2023-02-08T02:16:55.882Z,31.85
2023-02-08T02:19:51.079Z,23.05
2023-02-08T02:22:28.540Z,31.40
2023-02-08T02:25:02.888Z,26.17
2023-02-08T02:27:40.922Z,25.42
2023-02-08T02:30:46.124Z,20.52
2023-02-08T02:33:25.551Z,25.42
2023-02-08T02:36:02.195Z,23.65
2023-02-08T02:39:08.742Z,20.38
2023-02-08T02:42:04.632Z,19.58
2023-02-08T02:45:09.438Z,20.00
2023-02-08T02:47:55.981Z,20.58
2023-02-08T02:50:25.185Z,19.73
2023-02-08T02:53:01.098Z,22.20
2023-02-08T02:55:33.860Z,19.00
2023-02-08T02:58:02.834Z,21.70
2023-02-08T03:00:31.639Z,22.95
2023-02-08T03:02:58.809Z,25.52
2023-02-08T03:05:28.064Z,18.98
2023-02-08T03:08:10.264Z,18.83
2023-02-08T03:10:59.044Z,25.50
2023-02-08T03:13:55.525Z,23.38
2023-02-08T03:16:50.780Z,21.13
2023-02-08T03:19:29.081Z,25.55
2023-02-08T03:22:11.029Z,23.42
2023-02-08T03:25:00.630Z,29.48
2023-02-08T03:27:49.399Z,24.73
2023-02-08T03:30:45.445Z,27.05
2023-02-08T03:33:23.358Z,30.00
2023-02-08T03:36:06.552Z,25.85
2023-02-08T03:38:39.826Z,38.15
2023-02-08T03:41:10.394Z,37.92
2023-02-08T03:43:45.923Z,32.55
2023-02-08T03:46:27.810Z,39.15
2023-02-08T03:49:01.010Z,46.42
2023-02-08T03:51:30.221Z,37.55
2023-02-08T03:54:00.304Z,31.30
2023-02-08T03:57:18.524Z,23.20
2023-02-08T03:59:51.570Z,20.42
2023-02-08T04:02:21.876Z,20.75
2023-02-08T04:04:51.710Z,24.42
2023-02-08T04:07:19.721Z,24.25
2023-02-08T04:09:46.893Z,23.63
2023-02-08T04:12:14.363Z,20.30
2023-02-08T04:14:41.504Z,21.45
2023-02-08T04:17:08.607Z,24.20
2023-02-08T04:19:35.904Z,25.38
2023-02-08T04:22:02.947Z,21.33
2023-02-08T04:24:30.010Z,28.25
2023-02-08T04:26:57.106Z,22.38
2023-02-08T04:29:24.359Z,23.45
2023-02-08T04:31:51.437Z,20.67
2023-02-08T04:34:18.535Z,16.55
2023-02-08T04:36:45.613Z,21.55
2023-02-08T04:39:12.697Z,17.83
2023-02-08T04:41:39.697Z,21.65
2023-02-08T04:44:06.707Z,18.30
2023-02-08T04:46:33.879Z,22.42
2023-02-08T04:49:00.933Z,20.98
2023-02-08T04:51:28.014Z,20.15
2023-02-08T04:53:55.259Z,21.95
2023-02-08T04:56:23.202Z,12.45
2023-02-08T04:58:50.228Z,24.27
2023-02-08T05:01:17.614Z,18.13
2023-02-08T05:03:44.761Z,17.23
2023-02-08T05:06:11.930Z,19.02
2023-02-08T05:08:39.142Z,17.75
2023-02-08T05:11:06.327Z,21.42
2023-02-08T05:13:33.747Z,19.85
2023-02-08T05:16:00.849Z,20.52
2023-02-08T05:18:28.031Z,20.98
2023-02-08T05:21:00.083Z,22.08
2023-02-08T05:23:28.005Z,19.45
2023-02-08T05:25:55.090Z,20.05
2023-02-08T05:28:22.522Z,19.23
2023-02-08T05:30:49.908Z,20.13
2023-02-08T05:33:17.724Z,19.73
2023-02-08T05:35:45.615Z,25.40
2023-02-08T05:38:12.791Z,19.15
2023-02-08T05:40:40.135Z,22.20
2023-02-08T05:43:07.514Z,22.02
2023-02-08T05:45:34.588Z,20.27
2023-02-08T05:48:01.615Z,21.00
2023-02-08T05:50:28.708Z,22.40
2023-02-08T05:52:55.800Z,20.08
2023-02-08T05:55:22.946Z,22.15
2023-02-08T05:57:50.104Z,20.98
2023-02-08T06:00:17.544Z,24.05
2023-02-08T06:02:44.775Z,23.95
2023-02-08T06:05:11.908Z,25.77
2023-02-08T06:07:39.033Z,32.30
2023-02-08T06:10:06.424Z,35.83
2023-02-08T06:12:33.474Z,37.35
2023-02-08T06:15:00.516Z,32.17
2023-02-08T06:17:27.571Z,35.78
2023-02-08T06:19:54.608Z,27.42
2023-02-08T06:22:21.662Z,24.48
2023-02-08T06:24:49.153Z,19.83
2023-02-08T06:27:16.285Z,21.25
2023-02-08T06:29:43.553Z,24.10
2023-02-08T06:32:11.455Z,22.88
2023-02-08T06:34:38.672Z,23.75
2023-02-08T06:37:05.812Z,19.50
2023-02-08T06:39:33.002Z,21.48
2023-02-08T06:42:00.194Z,29.67
2023-02-08T06:44:27.315Z,24.77
2023-02-08T06:46:54.595Z,28.23
2023-02-08T06:49:21.828Z,25.90
2023-02-08T06:51:48.854Z,32.08
2023-02-08T06:54:15.979Z,27.90
2023-02-08T06:56:44.035Z,24.05
2023-02-08T06:59:11.512Z,24.38
2023-02-08T07:01:39.059Z,24.08
2023-02-08T07:04:06.357Z,23.02
2023-02-08T07:06:33.655Z,21.58
2023-02-08T07:09:02.632Z,26.17
2023-02-08T07:11:30.042Z,19.85
2023-02-08T07:13:57.116Z,18.88
2023-02-08T07:16:24.257Z,21.83
2023-02-08T07:18:51.390Z,18.83
2023-02-08T07:21:18.556Z,20.17
2023-02-08T07:23:46.398Z,24.67
2023-02-08T07:26:17.311Z,21.85
2023-02-08T07:28:44.481Z,15.10
2023-02-08T07:31:14.643Z,19.15
2023-02-08T07:33:42.318Z,22.40
2023-02-08T07:36:10.793Z,22.75
2023-02-08T07:38:39.090Z,21.08
2023-02-08T07:41:09.314Z,19.48
2023-02-08T07:43:38.326Z,14.40
2023-02-08T07:46:17.709Z,19.13
2023-02-08T07:48:45.175Z,15.27
2023-02-08T07:51:13.427Z,17.95
2023-02-08T07:53:40.580Z,21.80
2023-02-08T07:56:08.135Z,22.98
2023-02-08T07:58:35.497Z,18.92
2023-02-08T08:01:15.854Z,21.23
2023-02-08T08:03:48.611Z,17.65
2023-02-08T08:06:15.796Z,17.95
2023-02-08T08:08:47.376Z,19.00
2023-02-08T08:11:16.178Z,21.35
2023-02-08T08:13:43.718Z,20.83
2023-02-08T08:16:11.009Z,20.02
2023-02-08T08:18:38.556Z,13.65
2023-02-08T08:21:06.254Z,5.22
2023-02-08T08:23:33.627Z,12.75
2023-02-08T08:26:26.886Z,10.45
2023-02-08T08:31:22.254Z,10.68
2023-02-08T08:33:50.391Z,13.50
2023-02-08T08:36:19.400Z,14.48
2023-02-08T08:38:46.519Z,13.20
2023-02-08T08:41:26.289Z,11.40
2023-02-08T08:43:57.701Z,13.95
2023-02-08T08:46:25.023Z,5.45
2023-02-08T08:48:55.819Z,7.30
2023-02-08T08:51:24.649Z,14.93
2023-02-08T08:53:57.235Z,8.88
2023-02-08T08:56:24.226Z,15.30
2023-02-08T08:58:51.286Z,13.70
2023-02-08T09:01:18.373Z,8.32
2023-02-08T09:03:45.698Z,9.27
2023-02-08T09:06:13.052Z,11.25
2023-02-08T09:08:40.152Z,13.80
2023-02-08T09:11:13.833Z,8.68
2023-02-08T09:13:46.483Z,10.43
2023-02-08T09:16:16.299Z,7.13
2023-02-08T09:18:45.221Z,7.55
2023-02-08T09:21:16.374Z,12.50
2023-02-08T09:23:44.102Z,6.07
2023-02-08T09:26:12.945Z,6.97
2023-02-08T09:28:40.275Z,7.63
2023-02-08T09:31:22.715Z,8.98
2023-02-08T09:34:12.806Z,12.82
2023-02-08T09:36:42.109Z,4.82
2023-02-08T09:39:22.699Z,7.80
2023-02-08T09:42:04.529Z,15.02
2023-02-08T09:45:09.027Z,12.00
2023-02-08T09:47:41.182Z,9.70
2023-02-08T09:50:47.265Z,11.55
2023-02-08T09:53:46.325Z,12.75
2023-02-08T09:56:18.920Z,9.70
2023-02-08T09:58:55.431Z,16.35
2023-02-08T10:01:49.180Z,14.43
2023-02-08T10:04:57.051Z,18.10
2023-02-08T10:07:31.120Z,13.80
2023-02-08T10:10:03.293Z,12.63
2023-02-08T10:13:00.171Z,6.13
2023-02-08T10:15:36.055Z,19.42
2023-02-08T10:18:45.309Z,15.40
2023-02-08T10:21:34.234Z,14.60
2023-02-08T10:24:29.123Z,15.18
2023-02-08T10:27:31.402Z,6.88
2023-02-08T10:30:13.579Z,15.38
2023-02-08T10:32:59.637Z,4.27
2023-02-08T10:35:26.824Z,14.50
2023-02-08T10:38:02.064Z,16.65
2023-02-08T10:40:36.832Z,9.13
2023-02-08T10:43:35.273Z,13.88
2023-02-08T10:46:10.566Z,12.90
2023-02-08T10:48:49.104Z,50.15
2023-02-08T10:51:23.901Z,12.23
2023-02-08T10:53:56.041Z,12.95
2023-02-08T11:09:44.772Z,9.90
2023-02-08T11:12:25.732Z,7.22
2023-02-08T11:14:53.880Z,11.32
2023-02-08T11:17:42.422Z,12.00
2023-02-08T11:20:40.618Z,13.55
2023-02-08T11:23:52.489Z,6.70
2023-02-08T11:26:25.225Z,13.27
2023-02-08T11:29:15.777Z,12.70
2023-02-08T11:32:02.713Z,7.75
2023-02-08T11:34:40.472Z,11.38
2023-02-08T11:37:32.799Z,10.55
2023-02-08T11:40:46.636Z,11.50
2023-02-08T11:43:31.886Z,12.10
2023-02-08T11:49:55.470Z,9.60
2023-02-08T11:52:40.450Z,7.68
2023-02-08T11:55:54.852Z,11.38
2023-02-08T11:58:31.085Z,10.23
2023-02-08T12:01:20.660Z,14.93
2023-02-08T12:03:55.159Z,8.52
2023-02-08T12:06:54.275Z,15.48
2023-02-08T12:09:59.159Z,12.10
2023-02-08T12:13:05.932Z,8.38
2023-02-08T12:26:51.908Z,5.60
2023-02-08T12:39:55.660Z,15.82
2023-02-08T12:42:51.281Z,12.45
2023-02-08T12:57:00.370Z,9.35
2023-02-08T13:03:32.612Z,12.25
2023-02-08T13:06:28.191Z,8.63
2023-02-08T13:09:20.962Z,7.15
2023-02-08T13:15:02.947Z,10.82
2023-02-08T13:18:15.830Z,5.72
2023-02-08T13:21:18.225Z,8.60
2023-02-08T13:23:58.912Z,9.13
2023-02-08T13:26:27.994Z,12.60
2023-02-08T13:32:37.339Z,9.32
2023-02-08T13:35:15.949Z,8.95
2023-02-08T13:38:02.121Z,9.43
2023-02-08T13:40:37.203Z,7.35
2023-02-08T13:44:00.935Z,7.32
2023-02-08T13:47:04.055Z,10.75
2023-02-08T13:50:07.861Z,12.10
2023-02-08T13:52:48.156Z,3.85
2023-02-08T13:55:34.683Z,10.35
2023-02-08T13:58:16.409Z,7.35
2023-02-08T14:01:01.687Z,9.60
2023-02-08T14:03:35.241Z,8.00
2023-02-08T14:06:25.898Z,10.38
2023-02-08T14:09:14.030Z,7.40
2023-02-08T14:11:52.164Z,11.98
2023-02-08T14:14:38.362Z,6.43
2023-02-08T14:17:27.838Z,10.23
2023-02-08T14:20:05.171Z,9.45
2023-02-08T14:22:49.452Z,7.85
2023-02-08T14:25:46.313Z,12.20
2023-02-08T14:28:31.750Z,9.18
2023-02-08T14:31:04.593Z,18.23
2023-02-08T14:36:41.417Z,13.38
2023-02-08T14:39:30.933Z,13.82
2023-02-08T14:42:09.629Z,56.47
2023-02-08T14:44:39.628Z,75.95
2023-02-08T14:47:25.849Z,185.73
2023-02-08T14:53:11.902Z,58.40
2023-02-08T14:55:59.373Z,53.90
2023-02-08T14:58:30.649Z,30.92
2023-02-08T15:01:03.161Z,61.65
2023-02-08T15:03:33.484Z,56.88
2023-02-08T15:06:08.279Z,25.42
2023-02-08T15:08:35.878Z,39.33
2023-02-08T15:11:04.026Z,17.35
2023-02-08T15:13:32.174Z,19.23
2023-02-08T15:15:59.766Z,14.20
2023-02-08T15:18:32.381Z,22.67
2023-02-08T15:21:04.203Z,18.60
2023-02-08T15:23:35.259Z,18.48
2023-02-08T15:26:06.429Z,26.15
2023-02-08T15:28:37.168Z,27.25
2023-02-08T15:31:10.214Z,29.90
2023-02-08T15:33:43.137Z,29.42
2023-02-08T15:38:47.361Z,21.98
2023-02-08T15:41:35.926Z,20.00
2023-02-08T15:44:33.153Z,23.40
2023-02-08T15:47:06.103Z,19.13
2023-02-08T15:49:41.441Z,21.73
2023-02-08T15:52:14.963Z,25.67
2023-02-08T15:54:44.254Z,25.95
2023-02-08T15:57:41.062Z,27.63
2023-02-08T16:03:23.844Z,29.83
2023-02-08T16:06:06.384Z,24.45
2023-02-08T16:08:36.907Z,28.02
2023-02-08T16:49:19.987Z,140.88
2023-02-08T16:51:49.725Z,127.40
2023-02-08T17:47:17.268Z,83.45
2023-02-08T18:01:57.673Z,76.07
2023-02-08T18:04:25.077Z,76.00
2023-02-08T18:06:58.640Z,97.90
2023-02-08T18:09:27.923Z,111.50
2023-02-08T18:11:55.959Z,132.75
2023-02-08T18:14:23.758Z,156.00
2023-02-08T18:16:57.998Z,150.60
2023-02-08T18:19:27.351Z,133.48
2023-02-08T18:22:00.428Z,128.23
2023-02-08T18:24:29.036Z,122.07
2023-02-08T18:26:59.580Z,109.93
2023-02-08T18:29:29.664Z,106.25
2023-02-08T18:32:17.538Z,98.28
2023-02-08T18:35:07.065Z,102.97
2023-02-08T18:38:08.417Z,87.15
2023-02-08T18:40:40.587Z,88.20
2023-02-08T18:43:11.142Z,67.35
2023-02-08T18:45:43.021Z,74.68
2023-02-08T18:48:13.695Z,122.85
2023-02-08T18:50:42.635Z,75.70
2023-02-08T18:53:10.881Z,67.43
2023-02-08T18:55:39.412Z,62.88
2023-02-08T18:58:07.497Z,67.60
2023-02-08T19:00:35.865Z,67.00
2023-02-08T19:03:05.252Z,68.63
2023-02-08T19:05:39.143Z,66.25
2023-02-08T19:08:07.482Z,62.22
2023-02-08T19:10:41.119Z,56.22
2023-02-08T19:13:09.670Z,48.08
2023-02-08T19:15:39.428Z,54.38
2023-02-08T19:18:07.907Z,48.65
2023-02-08T19:20:38.101Z,48.78
2023-02-08T19:23:07.071Z,48.67
2023-02-08T19:25:39.347Z,52.08
2023-02-08T19:28:07.989Z,53.20
2023-02-08T19:30:37.562Z,48.83
2023-02-08T19:33:06.276Z,68.03
2023-02-08T19:35:38.560Z,73.47
2023-02-08T19:38:07.769Z,79.13
2023-02-08T19:40:37.668Z,78.85
2023-02-08T19:43:07.150Z,70.13
2023-02-08T19:45:36.276Z,66.05
2023-02-08T19:48:05.231Z,69.40
2023-02-08T19:50:34.684Z,59.08
2023-02-08T19:53:03.159Z,50.80
2023-02-08T19:55:31.432Z,56.38
2023-02-08T19:58:00.205Z,82.32
2023-02-08T20:00:29.518Z,71.05
2023-02-08T20:02:57.825Z,59.55
2023-02-08T20:05:25.775Z,55.13
2023-02-08T20:07:54.345Z,55.30
2023-02-08T20:10:22.116Z,60.78
2023-02-08T20:12:51.310Z,60.83
2023-02-08T20:15:19.424Z,68.18
2023-02-08T20:17:49.196Z,67.50
2023-02-08T20:20:16.992Z,68.43
2023-02-08T20:22:44.699Z,65.65
2023-02-08T20:25:12.985Z,68.40
2023-02-08T20:27:41.087Z,68.97
2023-02-08T20:30:09.781Z,64.60
2023-02-08T20:32:37.202Z,63.83
2023-02-08T20:35:05.689Z,68.63
2023-02-08T20:37:34.134Z,69.45
2023-02-08T20:40:02.074Z,71.30
2023-02-08T20:42:29.982Z,65.55
2023-02-08T20:44:58.758Z,68.80
2023-02-08T20:47:27.452Z,58.80
2023-02-08T20:49:56.709Z,57.88
2023-02-08T20:52:24.916Z,58.85
2023-02-08T20:54:52.800Z,57.65
2023-02-08T20:57:20.994Z,45.97
2023-02-08T20:59:53.501Z,52.08
2023-02-08T21:02:26.732Z,42.17
2023-02-08T21:04:54.426Z,42.97
2023-02-08T21:07:21.857Z,40.97
2023-02-08T21:09:49.272Z,41.40
2023-02-08T21:12:16.704Z,50.65
2023-02-08T21:14:44.831Z,45.63
2023-02-08T21:17:12.433Z,42.85
2023-02-08T21:19:39.773Z,53.78
2023-02-08T21:22:08.509Z,43.42
2023-02-08T21:24:36.240Z,46.97
2023-02-08T21:27:03.569Z,45.58
2023-02-08T21:29:32.677Z,50.10
2023-02-08T21:32:00.090Z,55.80
2023-02-08T21:34:27.550Z,61.03
2023-02-08T21:36:54.709Z,64.93
2023-02-08T21:39:23.375Z,64.72
2023-02-08T21:41:53.067Z,60.20
2023-02-08T21:44:20.737Z,58.92
2023-02-08T21:46:48.464Z,51.20
2023-02-08T21:49:34.178Z,51.85
2023-02-08T21:52:20.362Z,55.80
2023-02-08T21:54:53.275Z,52.15
2023-02-08T21:57:28.882Z,47.00
2023-02-08T22:00:01.511Z,44.42
2023-02-08T22:02:30.459Z,56.85
2023-02-08T22:05:22.273Z,46.88
2023-02-08T22:07:53.108Z,53.58
2023-02-08T22:10:23.226Z,46.95
2023-02-08T22:12:52.547Z,46.67
2023-02-08T22:15:21.184Z,44.10
2023-02-08T22:17:51.770Z,47.60
2023-02-08T22:20:18.986Z,46.80
2023-02-08T22:22:46.194Z,38.97
2023-02-08T22:25:13.674Z,47.03
2023-02-08T22:27:41.182Z,44.78
2023-02-08T22:30:10.129Z,45.85
2023-02-08T22:32:43.844Z,45.35
2023-02-08T22:35:12.450Z,48.60
2023-02-08T22:37:39.584Z,41.30
2023-02-08T22:40:07.485Z,38.30
2023-02-08T22:42:34.637Z,38.92
2023-02-08T22:45:01.669Z,41.00
2023-02-08T22:47:28.738Z,39.83
2023-02-08T22:49:58.729Z,37.17
2023-02-08T22:52:26.480Z,37.25
2023-02-08T22:54:54.676Z,41.97
2023-02-08T22:57:21.802Z,42.65
2023-02-08T22:59:48.953Z,41.33
2023-02-08T23:02:18.653Z,38.25
2023-02-08T23:04:45.884Z,49.78
2023-02-08T23:07:12.904Z,48.47
2023-02-08T23:09:40.066Z,46.90
2023-02-08T23:12:07.323Z,39.33
2023-02-08T23:14:36.188Z,41.97
2023-02-08T23:17:03.340Z,41.25
2023-02-08T23:19:30.383Z,40.05
2023-02-08T23:22:00.736Z,39.15
2023-02-08T23:24:28.154Z,36.95
2023-02-08T23:26:55.219Z,36.53
2023-02-08T23:29:22.280Z,41.03
2023-02-08T23:31:49.552Z,42.35
2023-02-08T23:34:16.778Z,36.88
2023-02-08T23:36:44.166Z,41.55
2023-02-08T23:39:11.284Z,39.92
2023-02-08T23:41:38.501Z,38.30
2023-02-08T23:44:06.513Z,42.67
2023-02-08T23:46:33.742Z,43.33
2023-02-08T23:49:00.864Z,36.03
2023-02-08T23:51:28.078Z,31.30
2023-02-08T23:53:55.358Z,39.85
2023-02-08T23:56:27.909Z,40.92
2023-02-08T23:58:58.385Z,33.72
